Latest Weather Observations for Flinders Reef

IDQ60801

Issued at 7:32 pm EST Tuesday 24 May 2016 (issued every 30 minutes, with the page automatically refreshed every 10 minutes)

About weather observations | Map of weather stations | Latest weather observations for QLD | Other Formats
Station Details ID: 200783 Name: FLINDERS REEF Lat: -17.72 Lon: 148.45 Height: 2.6 m
Data from the previous 72 hours. | See also: Recent months at Flinders Reef
Date/Time
EST
Temp
°C
App
Temp
°C
Dew
Point
Rel
Hum
%
Delta-T
°C
Wind Press
QNH
hPa
Press
MSL
hPa
Rain
since 9 am
mm
Dir
 
Spd
km/h
Gust
km/h
Spd
kts
Gust
kts
24/07:30pm 26.2 - - - - ESE 30 33 16 18 1015.9 - -
24/07:24pm 26.1 - - - - ESE 30 33 16 18 1015.8 1015.7 -
24/07:00pm 26.3 - - - - ESE 30 32 16 17 1015.6 - -
24/06:30pm 26.3 - - - - ESE 30 35 16 19 1015.1 - -
24/06:24pm 26.3 - - - - ESE 30 - 16 - - 1014.9 -
24/06:00pm 26.3 - - - - ESE 28 33 15 18 1015.0 - -
24/05:30pm 26.1 - - - - ESE 30 33 16 18 1014.5 - -
24/05:24pm 26.2 - - - - ESE 30 - 16 - - 1014.4 -
24/05:00pm 26.4 - - - - ESE 28 33 15 18 1014.4 - -
24/04:30pm 26.3 - - - - ESE 26 32 14 17 1014.0 - -
24/04:24pm 26.3 - - - - ESE 24 - 13 - - 1014.1 -
24/04:00pm 26.3 - - - - ESE 28 30 15 16 1013.9 - -
24/03:30pm 26.4 - - - - ESE 26 30 14 16 1014.0 - -
24/03:24pm 26.3 - - - - ESE 28 - 15 - - 1013.8 -
24/03:00pm 26.3 - - - - ESE 26 32 14 17 1014.0 - -
24/02:30pm 26.5 - - - - ESE 26 30 14 16 1014.1 - -
24/02:24pm 26.3 - - - - ESE 26 - 14 - - 1014.0 -
24/02:00pm 26.2 - - - - ESE 24 30 13 16 1014.3 - -
24/01:30pm 26.3 - - - - ESE 24 28 13 15 1014.6 - -
24/01:24pm 26.5 - - - - ESE 26 - 14 - - 1014.6 -
24/01:00pm 26.4 - - - - ESE 26 30 14 16 1015.1 - -
24/12:30pm 26.4 - - - - SE 28 32 15 17 1015.3 - -
24/12:24pm 26.5 - - - - SE 28 - 15 - - 1015.2 -
24/12:00pm 26.3 - - - - SE 30 33 16 18 1015.6 - -
24/11:30am 26.7 - - - - ESE 28 32 15 17 1016.1 - -
24/11:24am 26.4 - - - - ESE 28 - 15 - - 1016.0 -
24/11:00am 26.4 - - - - ESE 28 32 15 17 1016.2 - -
24/10:30am 26.5 - - - - ESE 30 33 16 18 1016.4 - -
24/10:24am 26.4 - - - - ESE 30 - 16 - - 1016.4 -
24/10:00am 26.3 - - - - ESE 30 35 16 19 1016.6 - -
24/09:30am 26.2 - - - - ESE 32 37 17 20 1016.3 - -
24/09:24am 26.3 - - - - ESE 32 - 17 - - 1016.3 -
24/09:00am 26.5 - - - - ESE 30 37 16 20 1016.3 - -
24/08:30am 26.3 - - - - ESE 33 39 18 21 1015.9 - -
24/08:24am 26.3 - - - - ESE 35 - 19 - - 1015.7 -
24/08:00am 25.9 - - - - E 35 41 19 22 1015.3 - -
24/07:30am 26.1 - - - - ESE 37 41 20 22 1015.1 - -
24/07:24am 25.9 - - - - ESE 35 - 19 - - 1015.0 -
24/07:00am 26.0 - - - - E 37 41 20 22 1015.1 - -
24/06:30am 25.9 - - - - ESE 35 41 19 22 1014.8 - -
24/06:24am 26.1 - - - - ESE 35 - 19 - - 1014.6 -
24/06:00am 26.1 - - - - ESE 37 44 20 24 1014.6 - -
24/05:30am 25.9 - - - - ESE 37 43 20 23 1014.5 - -
24/05:24am 25.9 - - - - ESE 37 - 20 - - 1014.4 -
24/05:00am 26.0 - - - - ESE 37 44 20 24 1014.3 - -
24/04:30am 25.9 - - - - ESE 37 43 20 23 1014.1 - -
24/04:24am 25.9 - - - - ESE 37 - 20 - - 1014.1 -
24/04:00am 26.1 - - - - ESE 37 43 20 23 1014.4 - -
24/03:30am 25.8 - - - - ESE 37 41 20 22 1014.5 - -
24/03:24am 25.9 - - - - ESE 35 - 19 - - 1014.6 -
24/03:00am 26.0 - - - - ESE 39 43 21 23 1014.8 - -
24/02:30am 26.0 - - - - ESE 41 46 22 25 1014.5 - -
24/02:24am 25.9 - - - - SE 33 - 18 - - 1014.9 -
24/02:00am 26.2 - - - - ESE 39 44 21 24 1014.9 - -
24/01:30am 26.1 - - - - ESE 37 43 20 23 1015.6 - -
24/01:24am 26.0 - - - - ESE 35 - 19 - - 1015.7 -
24/01:00am 26.4 - - - - ESE 35 39 19 21 1016.2 - -
24/12:30am 26.3 - - - - ESE 35 41 19 22 1016.3 - -
24/12:24am 26.2 - - - - ESE 35 - 19 - - 1016.3 -
24/12:00am 26.4 - - - - ESE 37 43 20 23 1016.3 - -
 
Date/Time
EST
Temp
°C
App
Temp
°C
Dew
Point
Rel
Hum
%
Delta-T
°C
Wind Press
QNH
hPa
Press
MSL
hPa
Rain
since 9 am
mm
Dir
 
Spd
km/h
Gust
km/h
Spd
kts
Gust
kts
23/11:30pm 26.2 - - - - ESE 37 41 20 22 1016.3 - -
23/11:24pm 26.3 - - - - ESE 37 - 20 - - 1016.2 -
23/11:00pm 26.0 - - - - ESE 35 41 19 22 1016.5 - -
23/10:30pm 26.2 - - - - ESE 35 43 19 23 1016.3 - -
23/10:24pm 25.5 - - - - ESE 33 - 18 - - 1016.4 -
23/10:00pm 25.9 - - - - ESE 37 43 20 23 1016.2 - -
23/09:30pm 26.0 - - - - ESE 35 41 19 22 1016.4 - -
23/09:24pm 25.8 - - - - ESE 35 - 19 - - 1016.3 -
23/09:00pm 25.9 - - - - E 41 46 22 25 1016.0 - -
23/08:30pm 26.0 - - - - ESE 39 43 21 23 1016.1 - -
23/08:24pm 26.0 - - - - ESE 39 - 21 - - 1016.0 -
23/08:00pm 25.9 - - - - ESE 39 44 21 24 1016.1 - -
23/07:30pm 26.2 - - - - ESE 37 43 20 23 1015.9 - -
23/07:24pm 26.5 - - - - ESE 35 - 19 - - 1015.4 -
23/07:00pm 26.5 - - - - ESE 32 35 17 19 1015.6 - -
23/06:30pm 26.4 - - - - ESE 32 35 17 19 1015.3 - -
23/06:24pm 26.3 - - - - ESE 32 - 17 - - 1015.2 -
23/06:00pm 26.3 - - - - ESE 33 41 18 22 1014.9 - -
23/05:30pm 26.2 - - - - ESE 33 39 18 21 1014.4 - -
23/05:24pm 26.4 - - - - ESE 33 - 18 - - 1014.4 -
23/05:00pm 26.5 - - - - ESE 28 35 15 19 1014.9 - -
23/04:30pm 26.2 - - - - ESE 32 35 17 19 1014.6 - -
23/04:24pm 26.6 - - - - ESE 32 - 17 - - 1014.4 -
23/04:00pm 26.2 - - - - ESE 33 39 18 21 1014.3 - -
23/03:30pm 26.2 - - - - ESE 33 39 18 21 1014.0 - -
23/03:24pm 26.5 - - - - SE 33 - 18 - - 1013.9 -
23/03:00pm 26.4 - - - - ESE 32 37 17 20 1014.1 - -
23/02:30pm 26.4 - - - - ESE 33 35 18 19 1014.4 - -
23/02:24pm 26.4 - - - - ESE 33 - 18 - - 1014.2 -
23/02:00pm 26.5 - - - - ESE 32 37 17 20 1014.5 - -
23/01:30pm 26.5 - - - - ESE 30 33 16 18 1015.2 - -
23/01:24pm 26.4 - - - - ESE 32 - 17 - - 1015.2 -
23/01:00pm 26.4 - - - - ESE 33 39 18 21 1015.1 - -
23/12:30pm 26.4 - - - - ESE 35 39 19 21 1015.3 - -
23/12:24pm 26.3 - - - - ESE 33 - 18 - - 1015.4 -
23/12:00pm 26.5 - - - - ESE 35 43 19 23 1015.6 - -
23/11:30am 26.4 - - - - ESE 35 41 19 22 1015.7 - -
23/11:24am 26.5 - - - - ESE 33 - 18 - - 1015.7 -
23/11:00am 26.7 - - - - ESE 32 37 17 20 1016.0 - -
23/10:30am 26.4 - - - - ESE 32 37 17 20 1016.1 - -
23/10:24am 26.3 - - - - ESE 32 - 17 - - 1016.1 -
23/10:00am 26.6 - - - - ESE 30 32 16 17 1016.8 - -
23/09:30am 26.7 - - - - ESE 33 37 18 20 1016.8 - -
23/09:24am 26.3 - - - - ESE 32 - 17 - - 1016.6 -
23/09:00am 26.6 - - - - ESE 35 41 19 22 1016.5 - -
23/08:30am 26.3 - - - - ESE 33 39 18 21 1016.3 - -
23/08:24am 26.4 - - - - ESE 33 - 18 - - 1016.2 -
23/08:00am 26.7 - - - - ESE 32 37 17 20 1016.1 - -
23/07:30am 26.5 - - - - ESE 33 41 18 22 1016.0 - -
23/07:24am 26.3 - - - - ESE 32 - 17 - - 1015.8 -
23/07:00am 26.6 - - - - E 33 39 18 21 1015.5 - -
23/06:30am 26.1 - - - - E 33 39 18 21 1015.2 - -
23/06:24am 26.3 - - - - ESE 33 - 18 - - 1014.9 -
23/06:00am 26.4 - - - - ESE 30 33 16 18 1015.3 - -
23/05:30am 26.2 - - - - ESE 35 43 19 23 1014.4 - -
23/05:24am 26.5 - - - - ESE 35 - 19 - - 1014.4 -
23/05:00am 26.5 - - - - ESE 35 41 19 22 1014.1 - -
23/04:30am 26.5 - - - - ESE 33 39 18 21 1014.5 - -
23/04:24am 26.3 - - - - ESE 35 - 19 - - 1014.4 -
23/04:00am 26.6 - - - - E 33 39 18 21 1014.4 - -
23/03:30am 26.0 - - - - ESE 33 39 18 21 1014.5 - -
23/03:24am 26.2 - - - - ESE 33 - 18 - - 1014.3 -
23/03:00am 26.0 - - - - ESE 35 41 19 22 1014.6 - -
23/02:30am 26.2 - - - - ESE 37 43 20 23 1014.7 - -
23/02:24am 26.5 - - - - E 35 - 19 - - 1014.6 -
23/02:00am 26.4 - - - - ESE 37 43 20 23 1014.9 - -
23/01:30am 26.4 - - - - ESE 39 43 21 23 1015.0 - -
23/01:24am 26.2 - - - - E 39 - 21 - - 1014.9 -
23/01:00am 26.2 - - - - E 41 46 22 25 1015.1 - -
23/12:30am 26.3 - - - - E 41 46 22 25 1015.6 - -
23/12:24am 26.3 - - - - E 39 - 21 - - 1015.6 -
23/12:00am 26.0 - - - - E 39 46 21 25 1015.8 - -
 
Date/Time
EST
Temp
°C
App
Temp
°C
Dew
Point
Rel
Hum
%
Delta-T
°C
Wind Press
QNH
hPa
Press
MSL
hPa
Rain
since 9 am
mm
Dir
 
Spd
km/h
Gust
km/h
Spd
kts
Gust
kts
22/11:30pm 26.2 - - - - E 39 44 21 24 1015.9 - -
22/11:24pm 26.3 - - - - E 39 - 21 - - 1015.9 -
22/11:00pm 26.5 - - - - E 39 46 21 25 1016.0 - -
22/10:30pm 26.5 - - - - E 41 46 22 25 1016.1 - -
22/10:24pm 26.4 - - - - E 41 - 22 - - 1016.0 -
22/10:00pm 26.6 - - - - E 41 46 22 25 1016.2 - -
22/09:30pm 26.4 - - - - E 39 46 21 25 1016.5 - -
22/09:24pm 26.5 - - - - E 39 - 21 - - 1016.4 -
22/09:00pm 26.5 - - - - E 39 43 21 23 1016.8 - -
22/08:30pm 26.7 - - - - E 39 43 21 23 1016.9 - -
22/08:24pm 26.5 - - - - E 39 - 21 - - 1016.7 -
22/08:00pm 26.4 - - - - E 37 43 20 23 1016.7 - -
22/07:30pm 26.7 - - - - E 37 46 20 25 1016.4 - -
22/07:24pm 26.5 - - - - E 39 - 21 - - 1016.2 -
22/07:00pm 26.6 - - - - E 39 44 21 24 1016.1 - -
22/06:30pm 26.7 - - - - E 37 43 20 23 1016.0 - -
22/06:24pm 26.5 - - - - E 37 - 20 - - 1015.8 -
22/06:00pm 26.5 - - - - E 37 41 20 22 1015.7 - -
22/05:30pm 26.7 - - - - E 37 43 20 23 1015.5 - -
22/05:24pm 26.4 - - - - E 39 - 21 - - 1015.3 -
22/05:00pm 26.6 - - - - ESE 39 44 21 24 1015.1 - -
22/04:30pm 26.6 - - - - E 39 44 21 24 1015.0 - -
22/04:24pm 26.6 - - - - E 39 - 21 - - 1014.8 -
22/04:00pm 26.7 - - - - E 37 43 20 23 1014.9 - -
22/03:30pm 26.6 - - - - ESE 37 43 20 23 1014.9 - -
22/03:24pm 26.7 - - - - ESE 39 - 21 - - 1014.8 -
22/03:00pm 26.8 - - - - ESE 39 46 21 25 1015.0 - -
22/02:30pm 26.6 - - - - ESE 41 46 22 25 1014.8 - -
22/02:24pm 26.6 - - - - ESE 41 - 22 - - 1014.7 -
22/02:00pm 26.3 - - - - ESE 41 50 22 27 1014.7 - -
22/01:30pm 26.5 - - - - ESE 43 50 23 27 1015.0 - -
22/01:24pm 26.3 - - - - ESE 41 - 22 - - 1015.1 -
22/01:00pm 26.6 - - - - ESE 41 46 22 25 1015.8 - -
22/12:30pm 26.4 - - - - ESE 39 44 21 24 1016.5 - -
22/12:24pm 26.5 - - - - ESE 39 - 21 - - 1016.5 -
22/12:00pm 26.7 - - - - ESE 39 43 21 23 1017.0 - -
22/11:30am 26.6 - - - - ESE 37 43 20 23 1017.4 - -
22/11:24am 26.7 - - - - ESE 37 - 20 - - 1017.4 -
22/11:00am 26.7 - - - - ESE 37 46 20 25 1017.9 - -
22/10:30am 26.9 - - - - ESE 39 44 21 24 1018.1 - -
22/10:24am 26.8 - - - - ESE 37 - 20 - - 1018.0 -
22/10:00am 26.7 - - - - ESE 41 46 22 25 1018.0 - -
22/09:30am 26.7 - - - - ESE 41 44 22 24 1018.3 - -
22/09:24am 26.5 - - - - ESE 39 - 21 - - 1018.2 -
22/09:00am 26.6 - - - - ESE 39 44 21 24 1018.1 - -
22/08:30am 24.9 - - - - E 32 48 17 26 1017.8 - -
22/08:24am 24.8 - - - - E 32 - 17 - - 1017.9 -
22/08:00am 24.5 - - - - E 37 46 20 25 1017.5 - -
22/07:41am 24.9 - - - - ENE 43 50 23 27 1017.3 - -
22/07:30am 25.1 - - - - E 33 37 18 20 1017.1 - -
22/07:24am 24.9 - - - - E 37 - 20 - - 1017.0 -
22/07:00am 24.5 - - - - E 41 50 22 27 1016.9 - -
22/06:41am 25.3 - - - - ENE 50 54 27 29 1016.7 - -
22/06:30am 26.0 - - - - E 37 43 20 23 1016.4 - -
22/06:24am 25.9 - - - - E 35 - 19 - - 1016.2 -
22/06:00am 25.1 - - - - ESE 41 50 22 27 1016.0 - -
22/05:30am 24.6 - - - - ESE 43 57 23 31 1015.5 - -
22/05:24am 24.9 - - - - E 46 - 25 - - 1015.4 -
22/05:00am 24.8 - - - - E 44 54 24 29 1015.0 - -
22/04:43am 25.0 - - - - ESE 44 50 24 27 1015.1 - -
22/04:30am 24.9 - - - - E 44 56 24 30 1015.1 - -
22/04:24am 25.0 - - - - E 39 - 21 - - 1014.9 -
22/04:22am 25.3 - - - - E 37 56 20 30 1015.0 - -
22/04:00am 26.0 - - - - E 41 46 22 25 1014.9 - -
22/03:30am 24.9 - - - - E 48 57 26 31 1015.0 - -
22/03:24am 25.1 - - - - E 44 - 24 - - 1014.9 -
22/03:20am 25.4 - - - - E 39 57 21 31 1014.8 - -
22/03:00am 25.4 - - - - E 41 50 22 27 1014.8 - -
22/02:30am 25.7 - - - - E 39 46 21 25 1014.8 - -
22/02:24am 25.7 - - - - E 39 - 21 - - 1014.8 -
22/02:00am 25.0 - - - - ESE 46 56 25 30 1015.2 - -
22/01:36am 25.4 - - - - E 44 65 24 35 1015.3 - -
22/01:30am 26.0 - - - - E 41 46 22 25 1015.4 - -
22/01:24am 25.9 - - - - E 41 - 22 - - 1015.5 -
22/01:00am 25.4 - - - - ESE 44 50 24 27 1015.9 - -
22/12:30am 26.1 - - - - E 46 54 25 29 1015.8 - -
22/12:24am 26.4 - - - - E 48 - 26 - - 1015.7 -
22/12:00am 25.7 - - - - E 44 57 24 31 1015.7 - -
 
Date/Time
EST
Temp
°C
App
Temp
°C
Dew
Point
Rel
Hum
%
Delta-T
°C
Wind Press
QNH
hPa
Press
MSL
hPa
Rain
since 9 am
mm
Dir
 
Spd
km/h
Gust
km/h
Spd
kts
Gust
kts
21/11:30pm 25.1 - - - - E 48 57 26 31 1016.0 - -
21/11:24pm 25.2 - - - - E 52 - 28 - - 1016.0 -
21/11:16pm 26.2 - - - - E 50 69 27 37 1015.9 - -
21/11:00pm 26.3 - - - - E 44 54 24 29 1015.8 - -
21/10:30pm 25.9 - - - - E 44 54 24 29 1016.2 - -
21/10:24pm 25.6 - - - - E 43 - 23 - - 1016.2 -
21/10:00pm 25.6 - - - - E 43 50 23 27 1016.5 - -
21/09:34pm 26.3 - - - - E 46 65 25 35 1016.6 - -
21/09:30pm 26.7 - - - - E 44 52 24 28 1016.5 - -
21/09:24pm 26.7 - - - - E 44 - 24 - - 1016.3 -
21/09:00pm 26.1 - - - - E 46 57 25 31 1016.3 - -
21/08:30pm 25.6 - - - - E 44 52 24 28 1016.3 - -
21/08:24pm 25.4 - - - - E 48 - 26 - - 1016.3 -
21/08:00pm 25.6 - - - - E 44 52 24 28 1016.3 - -

Other Formats:

Comma delimited format used in spreadsheet applications
http://www.bom.gov.au/fwo/IDQ60801/IDQ60801.94290.axf

JavaScript Object Notation format (JSON) in row-major order
http://www.bom.gov.au/fwo/IDQ60801/IDQ60801.94290.json